sensor_id;sensor_type;location;lat;lon;timestamp;temperature;humidity
70368;DHT22;57789;53.868;10.728;2023-12-28T00:01:34;6.10;99.90
70368;DHT22;57789;53.868;10.728;2023-12-28T00:03:59;6.10;99.90
70368;DHT22;57789;53.868;10.728;2023-12-28T00:06:25;6.10;99.90
70368;DHT22;57789;53.868;10.728;2023-12-28T00:08:51;6.10;99.90
70368;DHT22;57789;53.868;10.728;2023-12-28T00:11:16;6.10;99.90
70368;DHT22;57789;53.868;10.728;2023-12-28T00:13:42;6.10;99.90
70368;DHT22;57789;53.868;10.728;2023-12-28T00:16:08;6.20;99.90
70368;DHT22;57789;53.868;10.728;2023-12-28T00:18:33;6.20;99.90
70368;DHT22;57789;53.868;10.728;2023-12-28T00:20:59;6.20;99.90
70368;DHT22;57789;53.868;10.728;2023-12-28T00:23:25;6.20;99.90
70368;DHT22;57789;53.868;10.728;2023-12-28T00:25:50;6.30;99.90
70368;DHT22;57789;53.868;10.728;2023-12-28T00:28:16;6.30;99.90
70368;DHT22;57789;53.868;10.728;2023-12-28T00:30:42;6.30;99.90
70368;DHT22;57789;53.868;10.728;2023-12-28T00:33:07;6.30;99.90
70368;DHT22;57789;53.868;10.728;2023-12-28T00:35:33;6.40;99.90
70368;DHT22;57789;53.868;10.728;2023-12-28T00:37:59;6.40;99.90
70368;DHT22;57789;53.868;10.728;2023-12-28T00:40:24;6.40;99.90
70368;DHT22;57789;53.868;10.728;2023-12-28T00:42:50;6.40;99.90
70368;DHT22;57789;53.868;10.728;2023-12-28T00:45:16;6.50;99.90
70368;DHT22;57789;53.868;10.728;2023-12-28T00:47:41;6.40;99.90
70368;DHT22;57789;53.868;10.728;2023-12-28T00:50:12;6.40;99.90
70368;DHT22;57789;53.868;10.728;2023-12-28T00:52:40;6.50;99.90
70368;DHT22;57789;53.868;10.728;2023-12-28T00:55:06;6.50;99.90
70368;DHT22;57789;53.868;10.728;2023-12-28T00:57:33;6.50;99.90
70368;DHT22;57789;53.868;10.728;2023-12-28T00:59:59;6.50;99.90
70368;DHT22;57789;53.868;10.728;2023-12-28T01:02:25;6.50;99.90
70368;DHT22;57789;53.868;10.728;2023-12-28T01:04:50;6.50;99.90
70368;DHT22;57789;53.868;10.728;2023-12-28T01:07:16;6.50;99.90
70368;DHT22;57789;53.868;10.728;2023-12-28T01:09:42;6.50;99.90
70368;DHT22;57789;53.868;10.728;2023-12-28T01:12:07;6.50;99.90
70368;DHT22;57789;53.868;10.728;2023-12-28T01:14:33;6.50;99.90
70368;DHT22;57789;53.868;10.728;2023-12-28T01:16:59;6.50;99.90
70368;DHT22;57789;53.868;10.728;2023-12-28T01:19:25;6.60;99.90
70368;DHT22;57789;53.868;10.728;2023-12-28T01:21:51;6.60;99.90
70368;DHT22;57789;53.868;10.728;2023-12-28T01:24:17;6.60;99.90
70368;DHT22;57789;53.868;10.728;2023-12-28T01:26:43;6.60;99.90
70368;DHT22;57789;53.868;10.728;2023-12-28T01:29:08;6.70;99.90
70368;DHT22;57789;53.868;10.728;2023-12-28T01:31:34;6.70;99.90
70368;DHT22;57789;53.868;10.728;2023-12-28T01:34:00;6.70;99.90
70368;DHT22;57789;53.868;10.728;2023-12-28T01:36:25;6.80;99.90
70368;DHT22;57789;53.868;10.728;2023-12-28T01:38:52;6.80;99.90
70368;DHT22;57789;53.868;10.728;2023-12-28T01:41:18;6.80;99.90
70368;DHT22;57789;53.868;10.728;2023-12-28T01:43:44;6.90;99.90
70368;DHT22;57789;53.868;10.728;2023-12-28T01:46:16;6.90;99.90
70368;DHT22;57789;53.868;10.728;2023-12-28T01:48:44;6.90;99.90
70368;DHT22;57789;53.868;10.728;2023-12-28T01:51:12;6.90;99.90
70368;DHT22;57789;53.868;10.728;2023-12-28T01:53:39;7.00;99.90
70368;DHT22;57789;53.868;10.728;2023-12-28T01:56:05;7.00;99.90
70368;DHT22;57789;53.868;10.728;2023-12-28T01:58:33;7.00;99.90
70368;DHT22;57789;53.868;10.728;2023-12-28T02:01:00;7.10;99.90
70368;DHT22;57789;53.868;10.728;2023-12-28T02:03:27;7.10;99.90
70368;DHT22;57789;53.868;10.728;2023-12-28T02:05:53;7.10;99.90
70368;DHT22;57789;53.868;10.728;2023-12-28T02:08:19;7.10;99.90
70368;DHT22;57789;53.868;10.728;2023-12-28T02:10:45;7.10;99.90
70368;DHT22;57789;53.868;10.728;2023-12-28T02:13:11;7.20;99.90
70368;DHT22;57789;53.868;10.728;2023-12-28T02:15:37;7.20;99.90
70368;DHT22;57789;53.868;10.728;2023-12-28T02:18:11;7.20;99.90
70368;DHT22;57789;53.868;10.728;2023-12-28T02:20:39;7.20;99.90
70368;DHT22;57789;53.868;10.728;2023-12-28T02:23:05;7.20;99.90
70368;DHT22;57789;53.868;10.728;2023-12-28T02:25:31;7.20;99.90
70368;DHT22;57789;53.868;10.728;2023-12-28T02:27:57;7.30;99.90
70368;DHT22;57789;53.868;10.728;2023-12-28T02:30:23;7.30;99.90
70368;DHT22;57789;53.868;10.728;2023-12-28T02:35:55;7.30;99.90
70368;DHT22;57789;53.868;10.728;2023-12-28T02:38:24;7.40;99.90
70368;DHT22;57789;53.868;10.728;2023-12-28T02:40:50;7.40;99.90
70368;DHT22;57789;53.868;10.728;2023-12-28T02:43:16;7.40;99.90
70368;DHT22;57789;53.868;10.728;2023-12-28T02:45:42;7.50;99.90
70368;DHT22;57789;53.868;10.728;2023-12-28T02:48:07;7.50;99.90
70368;DHT22;57789;53.868;10.728;2023-12-28T02:50:33;7.50;99.90
70368;DHT22;57789;53.868;10.728;2023-12-28T02:52:59;7.60;99.90
70368;DHT22;57789;53.868;10.728;2023-12-28T02:55:25;7.60;99.90
70368;DHT22;57789;53.868;10.728;2023-12-28T02:57:53;7.60;99.90
70368;DHT22;57789;53.868;10.728;2023-12-28T03:00:20;7.70;99.90
70368;DHT22;57789;53.868;10.728;2023-12-28T03:02:46;7.70;99.90
70368;DHT22;57789;53.868;10.728;2023-12-28T03:05:12;7.70;99.90
70368;DHT22;57789;53.868;10.728;2023-12-28T03:07:38;7.70;99.90
70368;DHT22;57789;53.868;10.728;2023-12-28T03:10:06;7.70;99.90
70368;DHT22;57789;53.868;10.728;2023-12-28T03:12:32;7.70;99.90
70368;DHT22;57789;53.868;10.728;2023-12-28T03:14:57;7.80;99.90
70368;DHT22;57789;53.868;10.728;2023-12-28T03:17:23;7.80;99.90
70368;DHT22;57789;53.868;10.728;2023-12-28T03:19:49;7.90;99.90
70368;DHT22;57789;53.868;10.728;2023-12-28T03:22:14;7.90;99.90
70368;DHT22;57789;53.868;10.728;2023-12-28T03:24:41;7.90;99.90
70368;DHT22;57789;53.868;10.728;2023-12-28T03:27:06;7.90;99.90
70368;DHT22;57789;53.868;10.728;2023-12-28T03:29:33;7.90;99.90
70368;DHT22;57789;53.868;10.728;2023-12-28T03:31:59;7.90;99.90
70368;DHT22;57789;53.868;10.728;2023-12-28T03:34:25;7.90;99.90
70368;DHT22;57789;53.868;10.728;2023-12-28T03:36:55;7.90;99.90
70368;DHT22;57789;53.868;10.728;2023-12-28T03:39:22;7.90;99.90
70368;DHT22;57789;53.868;10.728;2023-12-28T03:41:48;8.00;99.90
70368;DHT22;57789;53.868;10.728;2023-12-28T03:44:14;8.00;99.90
70368;DHT22;57789;53.868;10.728;2023-12-28T03:46:40;8.00;99.90
70368;DHT22;57789;53.868;10.728;2023-12-28T03:49:05;8.00;99.90
70368;DHT22;57789;53.868;10.728;2023-12-28T03:51:31;8.00;99.90
70368;DHT22;57789;53.868;10.728;2023-12-28T03:53:57;8.00;99.90
70368;DHT22;57789;53.868;10.728;2023-12-28T03:56:27;8.00;99.90
70368;DHT22;57789;53.868;10.728;2023-12-28T03:58:54;8.00;99.90
70368;DHT22;57789;53.868;10.728;2023-12-28T04:01:21;8.00;99.90
70368;DHT22;57789;53.868;10.728;2023-12-28T04:03:47;7.90;99.90
70368;DHT22;57789;53.868;10.728;2023-12-28T04:06:13;7.90;99.90
70368;DHT22;57789;53.868;10.728;2023-12-28T04:08:40;7.90;99.90
70368;DHT22;57789;53.868;10.728;2023-12-28T04:11:06;7.90;99.90
70368;DHT22;57789;53.868;10.728;2023-12-28T04:13:32;7.90;99.90
70368;DHT22;57789;53.868;10.728;2023-12-28T04:15:57;7.80;99.90
70368;DHT22;57789;53.868;10.728;2023-12-28T04:18:23;7.80;99.90
70368;DHT22;57789;53.868;10.728;2023-12-28T04:20:49;7.90;99.90
70368;DHT22;57789;53.868;10.728;2023-12-28T04:23:15;7.90;99.90
70368;DHT22;57789;53.868;10.728;2023-12-28T04:25:41;7.80;99.90
70368;DHT22;57789;53.868;10.728;2023-12-28T04:28:07;7.90;99.90
70368;DHT22;57789;53.868;10.728;2023-12-28T04:30:33;7.80;99.90
70368;DHT22;57789;53.868;10.728;2023-12-28T04:33:00;7.90;99.90
70368;DHT22;57789;53.868;10.728;2023-12-28T04:35:26;7.80;99.90
70368;DHT22;57789;53.868;10.728;2023-12-28T04:37:51;7.80;99.90
70368;DHT22;57789;53.868;10.728;2023-12-28T04:40:17;7.90;99.90
70368;DHT22;57789;53.868;10.728;2023-12-28T04:42:43;7.80;99.90
70368;DHT22;57789;53.868;10.728;2023-12-28T04:45:09;7.80;99.90
70368;DHT22;57789;53.868;10.728;2023-12-28T04:47:38;7.90;99.90
70368;DHT22;57789;53.868;10.728;2023-12-28T04:50:05;7.90;99.90
70368;DHT22;57789;53.868;10.728;2023-12-28T04:52:31;7.90;99.90
70368;DHT22;57789;53.868;10.728;2023-12-28T04:54:57;7.80;99.90
70368;DHT22;57789;53.868;10.728;2023-12-28T04:57:22;7.80;99.90
70368;DHT22;57789;53.868;10.728;2023-12-28T04:59:51;7.80;99.90
70368;DHT22;57789;53.868;10.728;2023-12-28T05:02:16;7.80;99.90
70368;DHT22;57789;53.868;10.728;2023-12-28T05:04:42;7.80;99.90
70368;DHT22;57789;53.868;10.728;2023-12-28T05:07:08;7.80;99.90
70368;DHT22;57789;53.868;10.728;2023-12-28T05:09:33;7.80;99.90
70368;DHT22;57789;53.868;10.728;2023-12-28T05:11:59;7.90;99.90
70368;DHT22;57789;53.868;10.728;2023-12-28T05:14:25;7.80;99.90
70368;DHT22;57789;53.868;10.728;2023-12-28T05:16:51;7.80;99.90
70368;DHT22;57789;53.868;10.728;2023-12-28T05:19:16;7.80;99.90
70368;DHT22;57789;53.868;10.728;2023-12-28T05:21:42;7.80;99.90
70368;DHT22;57789;53.868;10.728;2023-12-28T05:24:08;7.70;99.90
70368;DHT22;57789;53.868;10.728;2023-12-28T05:26:33;7.70;99.90
70368;DHT22;57789;53.868;10.728;2023-12-28T05:28:59;7.70;99.90
70368;DHT22;57789;53.868;10.728;2023-12-28T05:31:26;7.60;99.90
70368;DHT22;57789;53.868;10.728;2023-12-28T05:33:52;7.60;99.90
70368;DHT22;57789;53.868;10.728;2023-12-28T05:36:17;7.60;99.90
70368;DHT22;57789;53.868;10.728;2023-12-28T05:38:43;7.60;99.90
70368;DHT22;57789;53.868;10.728;2023-12-28T05:41:12;7.60;99.90
70368;DHT22;57789;53.868;10.728;2023-12-28T05:43:38;7.50;99.90
70368;DHT22;57789;53.868;10.728;2023-12-28T05:46:04;7.50;99.90
70368;DHT22;57789;53.868;10.728;2023-12-28T05:48:30;7.50;99.90
70368;DHT22;57789;53.868;10.728;2023-12-28T05:50:57;7.50;99.90
70368;DHT22;57789;53.868;10.728;2023-12-28T05:53:24;7.50;99.90
70368;DHT22;57789;53.868;10.728;2023-12-28T05:55:49;7.50;99.90
70368;DHT22;57789;53.868;10.728;2023-12-28T05:58:15;7.60;99.90
70368;DHT22;57789;53.868;10.728;2023-12-28T06:00:41;7.60;99.90
70368;DHT22;57789;53.868;10.728;2023-12-28T06:03:07;7.60;99.90
70368;DHT22;57789;53.868;10.728;2023-12-28T06:05:33;7.60;99.90
70368;DHT22;57789;53.868;10.728;2023-12-28T06:07:59;7.60;99.90
70368;DHT22;57789;53.868;10.728;2023-12-28T06:10:24;7.70;99.90
70368;DHT22;57789;53.868;10.728;2023-12-28T06:12:50;7.70;99.90
70368;DHT22;57789;53.868;10.728;2023-12-28T06:15:16;7.70;99.90
70368;DHT22;57789;53.868;10.728;2023-12-28T06:17:42;7.70;99.90
70368;DHT22;57789;53.868;10.728;2023-12-28T06:20:08;7.70;99.90
70368;DHT22;57789;53.868;10.728;2023-12-28T06:22:37;7.70;99.90
70368;DHT22;57789;53.868;10.728;2023-12-28T06:25:03;7.80;99.90
70368;DHT22;57789;53.868;10.728;2023-12-28T06:27:29;7.80;99.90
70368;DHT22;57789;53.868;10.728;2023-12-28T06:29:55;7.90;99.90
70368;DHT22;57789;53.868;10.728;2023-12-28T06:32:20;7.90;99.90
70368;DHT22;57789;53.868;10.728;2023-12-28T06:34:48;8.00;99.90
70368;DHT22;57789;53.868;10.728;2023-12-28T06:37:14;7.90;99.90
70368;DHT22;57789;53.868;10.728;2023-12-28T06:39:40;7.90;99.90
70368;DHT22;57789;53.868;10.728;2023-12-28T06:42:06;7.90;99.90
70368;DHT22;57789;53.868;10.728;2023-12-28T06:44:32;7.90;99.90
70368;DHT22;57789;53.868;10.728;2023-12-28T06:46:58;7.90;99.90
70368;DHT22;57789;53.868;10.728;2023-12-28T06:49:25;8.00;99.90
70368;DHT22;57789;53.868;10.728;2023-12-28T06:51:51;8.10;99.90
70368;DHT22;57789;53.868;10.728;2023-12-28T06:54:17;8.10;99.90
70368;DHT22;57789;53.868;10.728;2023-12-28T06:56:43;8.10;99.90
70368;DHT22;57789;53.868;10.728;2023-12-28T06:59:09;8.10;99.90
70368;DHT22;57789;53.868;10.728;2023-12-28T07:01:40;8.10;99.90
70368;DHT22;57789;53.868;10.728;2023-12-28T07:04:07;8.20;99.90
70368;DHT22;57789;53.868;10.728;2023-12-28T07:06:32;8.20;99.90
70368;DHT22;57789;53.868;10.728;2023-12-28T07:08:58;8.20;99.90
70368;DHT22;57789;53.868;10.728;2023-12-28T07:11:24;8.20;99.90
70368;DHT22;57789;53.868;10.728;2023-12-28T07:13:52;8.30;99.90
70368;DHT22;57789;53.868;10.728;2023-12-28T07:16:17;8.30;99.90
70368;DHT22;57789;53.868;10.728;2023-12-28T07:18:43;8.40;99.90
70368;DHT22;57789;53.868;10.728;2023-12-28T07:21:08;8.40;99.90
70368;DHT22;57789;53.868;10.728;2023-12-28T07:23:39;8.40;99.90
70368;DHT22;57789;53.868;10.728;2023-12-28T07:26:06;8.50;99.90
70368;DHT22;57789;53.868;10.728;2023-12-28T07:28:31;8.50;99.90
70368;DHT22;57789;53.868;10.728;2023-12-28T07:31:00;8.50;99.90
70368;DHT22;57789;53.868;10.728;2023-12-28T07:33:26;8.50;99.90
70368;DHT22;57789;53.868;10.728;2023-12-28T07:35:55;8.60;99.90
70368;DHT22;57789;53.868;10.728;2023-12-28T07:38:28;8.60;99.90
70368;DHT22;57789;53.868;10.728;2023-12-28T07:40:54;8.70;99.90
70368;DHT22;57789;53.868;10.728;2023-12-28T07:43:20;8.80;99.90
70368;DHT22;57789;53.868;10.728;2023-12-28T07:45:46;8.80;99.90
70368;DHT22;57789;53.868;10.728;2023-12-28T07:48:12;8.90;99.90
70368;DHT22;57789;53.868;10.728;2023-12-28T07:50:38;9.00;99.90
70368;DHT22;57789;53.868;10.728;2023-12-28T07:53:04;9.00;99.90
70368;DHT22;57789;53.868;10.728;2023-12-28T07:55:31;9.00;99.90
70368;DHT22;57789;53.868;10.728;2023-12-28T07:57:56;9.00;99.90
70368;DHT22;57789;53.868;10.728;2023-12-28T08:00:22;9.10;99.90
70368;DHT22;57789;53.868;10.728;2023-12-28T08:02:51;9.10;99.90
70368;DHT22;57789;53.868;10.728;2023-12-28T08:05:17;9.10;99.90
70368;DHT22;57789;53.868;10.728;2023-12-28T08:07:45;9.10;99.90
70368;DHT22;57789;53.868;10.728;2023-12-28T08:10:12;9.00;99.90
70368;DHT22;57789;53.868;10.728;2023-12-28T08:12:38;9.00;99.90
70368;DHT22;57789;53.868;10.728;2023-12-28T08:15:06;9.10;99.90
70368;DHT22;57789;53.868;10.728;2023-12-28T08:17:33;9.10;99.90
70368;DHT22;57789;53.868;10.728;2023-12-28T08:20:00;9.20;99.90
70368;DHT22;57789;53.868;10.728;2023-12-28T08:22:27;9.10;99.90
70368;DHT22;57789;53.868;10.728;2023-12-28T08:24:54;9.10;99.90
70368;DHT22;57789;53.868;10.728;2023-12-28T08:27:20;9.20;99.90
70368;DHT22;57789;53.868;10.728;2023-12-28T08:29:48;9.30;99.90
70368;DHT22;57789;53.868;10.728;2023-12-28T08:32:15;9.30;99.90
70368;DHT22;57789;53.868;10.728;2023-12-28T08:34:43;9.30;99.90
70368;DHT22;57789;53.868;10.728;2023-12-28T08:37:09;9.30;99.90
70368;DHT22;57789;53.868;10.728;2023-12-28T08:39:41;9.40;99.90
70368;DHT22;57789;53.868;10.728;2023-12-28T08:42:09;9.40;99.90
70368;DHT22;57789;53.868;10.728;2023-12-28T08:44:36;9.40;99.90
70368;DHT22;57789;53.868;10.728;2023-12-28T08:47:04;9.50;99.90
70368;DHT22;57789;53.868;10.728;2023-12-28T08:49:32;9.60;99.90
70368;DHT22;57789;53.868;10.728;2023-12-28T08:52:00;9.60;99.90
70368;DHT22;57789;53.868;10.728;2023-12-28T08:54:27;9.60;99.90
70368;DHT22;57789;53.868;10.728;2023-12-28T08:56:54;9.70;99.90
70368;DHT22;57789;53.868;10.728;2023-12-28T08:59:22;9.70;99.90
70368;DHT22;57789;53.868;10.728;2023-12-28T09:01:48;9.80;99.90
70368;DHT22;57789;53.868;10.728;2023-12-28T09:04:14;9.80;99.90
70368;DHT22;57789;53.868;10.728;2023-12-28T09:06:41;9.90;99.90
70368;DHT22;57789;53.868;10.728;2023-12-28T09:09:08;9.90;99.90
70368;DHT22;57789;53.868;10.728;2023-12-28T09:11:35;10.00;99.90
70368;DHT22;57789;53.868;10.728;2023-12-28T09:14:06;10.00;99.90
70368;DHT22;57789;53.868;10.728;2023-12-28T09:19:06;10.10;99.90
70368;DHT22;57789;53.868;10.728;2023-12-28T09:21:33;10.10;99.90
70368;DHT22;57789;53.868;10.728;2023-12-28T09:23:58;10.20;99.90
70368;DHT22;57789;53.868;10.728;2023-12-28T09:26:24;10.20;99.90
70368;DHT22;57789;53.868;10.728;2023-12-28T09:28:50;10.30;99.90
70368;DHT22;57789;53.868;10.728;2023-12-28T09:31:16;10.30;99.90
70368;DHT22;57789;53.868;10.728;2023-12-28T09:33:43;10.40;99.90
70368;DHT22;57789;53.868;10.728;2023-12-28T09:36:09;10.40;99.90
70368;DHT22;57789;53.868;10.728;2023-12-28T09:38:38;10.50;99.90
70368;DHT22;57789;53.868;10.728;2023-12-28T09:41:13;10.50;99.90
70368;DHT22;57789;53.868;10.728;2023-12-28T09:44:02;10.60;99.90
70368;DHT22;57789;53.868;10.728;2023-12-28T09:46:31;10.70;99.90
70368;DHT22;57789;53.868;10.728;2023-12-28T09:48:58;10.60;99.90
70368;DHT22;57789;53.868;10.728;2023-12-28T09:51:27;10.70;99.90
70368;DHT22;57789;53.868;10.728;2023-12-28T09:53:55;10.80;99.90
70368;DHT22;57789;53.868;10.728;2023-12-28T09:56:30;10.80;99.90
70368;DHT22;57789;53.868;10.728;2023-12-28T09:59:07;10.80;99.90
70368;DHT22;57789;53.868;10.728;2023-12-28T10:01:34;10.80;99.90
70368;DHT22;57789;53.868;10.728;2023-12-28T10:04:01;10.80;99.90
70368;DHT22;57789;53.868;10.728;2023-12-28T10:06:32;10.90;99.90
70368;DHT22;57789;53.868;10.728;2023-12-28T10:09:01;10.90;99.90
70368;DHT22;57789;53.868;10.728;2023-12-28T10:11:31;10.90;99.90
70368;DHT22;57789;53.868;10.728;2023-12-28T10:13:59;10.90;99.90
70368;DHT22;57789;53.868;10.728;2023-12-28T10:16:28;10.90;99.90
70368;DHT22;57789;53.868;10.728;2023-12-28T10:18:55;10.90;99.90
70368;DHT22;57789;53.868;10.728;2023-12-28T10:21:24;11.00;99.90
70368;DHT22;57789;53.868;10.728;2023-12-28T10:23:51;11.00;99.90
70368;DHT22;57789;53.868;10.728;2023-12-28T10:26:21;11.00;99.90
70368;DHT22;57789;53.868;10.728;2023-12-28T10:28:47;11.00;99.90
70368;DHT22;57789;53.868;10.728;2023-12-28T10:31:15;11.10;99.90
70368;DHT22;57789;53.868;10.728;2023-12-28T10:33:43;11.10;99.90
70368;DHT22;57789;53.868;10.728;2023-12-28T10:36:14;11.10;99.90
70368;DHT22;57789;53.868;10.728;2023-12-28T10:38:43;11.10;99.90
70368;DHT22;57789;53.868;10.728;2023-12-28T10:41:12;11.20;99.90
70368;DHT22;57789;53.868;10.728;2023-12-28T10:44:03;11.20;99.90
70368;DHT22;57789;53.868;10.728;2023-12-28T10:46:32;11.30;99.90
70368;DHT22;57789;53.868;10.728;2023-12-28T10:49:09;11.20;99.90
70368;DHT22;57789;53.868;10.728;2023-12-28T10:51:43;11.20;99.90
70368;DHT22;57789;53.868;10.728;2023-12-28T10:54:22;11.20;99.90
70368;DHT22;57789;53.868;10.728;2023-12-28T10:57:09;11.20;99.90
70368;DHT22;57789;53.868;10.728;2023-12-28T11:02:25;11.30;99.90
70368;DHT22;57789;53.868;10.728;2023-12-28T11:04:55;11.30;99.90
70368;DHT22;57789;53.868;10.728;2023-12-28T11:07:24;11.30;99.90
70368;DHT22;57789;53.868;10.728;2023-12-28T11:10:00;11.30;99.90
70368;DHT22;57789;53.868;10.728;2023-12-28T11:12:27;11.40;99.90
70368;DHT22;57789;53.868;10.728;2023-12-28T11:14:54;11.50;99.90
70368;DHT22;57789;53.868;10.728;2023-12-28T11:17:23;11.60;99.90
70368;DHT22;57789;53.868;10.728;2023-12-28T11:19:54;11.70;99.90
70368;DHT22;57789;53.868;10.728;2023-12-28T11:22:22;12.00;99.90
70368;DHT22;57789;53.868;10.728;2023-12-28T11:24:49;12.00;99.90
70368;DHT22;57789;53.868;10.728;2023-12-28T11:27:19;12.00;99.90
70368;DHT22;57789;53.868;10.728;2023-12-28T11:29:46;12.10;99.90
70368;DHT22;57789;53.868;10.728;2023-12-28T11:32:13;12.10;99.90
70368;DHT22;57789;53.868;10.728;2023-12-28T11:34:40;11.90;99.90
70368;DHT22;57789;53.868;10.728;2023-12-28T11:37:08;11.80;99.90
70368;DHT22;57789;53.868;10.728;2023-12-28T11:39:41;11.70;99.90
70368;DHT22;57789;53.868;10.728;2023-12-28T11:42:11;11.70;99.90
70368;DHT22;57789;53.868;10.728;2023-12-28T11:44:40;11.60;99.90
70368;DHT22;57789;53.868;10.728;2023-12-28T11:47:14;11.50;99.90
70368;DHT22;57789;53.868;10.728;2023-12-28T11:49:42;11.40;99.90
70368;DHT22;57789;53.868;10.728;2023-12-28T11:52:27;11.30;99.90
70368;DHT22;57789;53.868;10.728;2023-12-28T11:54:53;11.30;99.90
70368;DHT22;57789;53.868;10.728;2023-12-28T11:57:20;11.30;99.90
70368;DHT22;57789;53.868;10.728;2023-12-28T11:59:48;11.30;99.90
70368;DHT22;57789;53.868;10.728;2023-12-28T12:02:23;11.30;99.90
70368;DHT22;57789;53.868;10.728;2023-12-28T12:04:55;11.30;99.90
70368;DHT22;57789;53.868;10.728;2023-12-28T12:07:24;11.30;99.90
70368;DHT22;57789;53.868;10.728;2023-12-28T12:09:59;11.30;99.90
70368;DHT22;57789;53.868;10.728;2023-12-28T12:12:30;11.30;99.90
70368;DHT22;57789;53.868;10.728;2023-12-28T12:14:58;11.30;99.90
70368;DHT22;57789;53.868;10.728;2023-12-28T12:17:27;11.30;99.90
70368;DHT22;57789;53.868;10.728;2023-12-28T12:19:55;11.30;99.90
70368;DHT22;57789;53.868;10.728;2023-12-28T12:22:25;11.30;99.90
70368;DHT22;57789;53.868;10.728;2023-12-28T12:24:52;11.30;99.90
70368;DHT22;57789;53.868;10.728;2023-12-28T12:27:20;11.30;99.90
70368;DHT22;57789;53.868;10.728;2023-12-28T12:29:46;11.30;99.90
70368;DHT22;57789;53.868;10.728;2023-12-28T12:32:13;11.30;99.90
70368;DHT22;57789;53.868;10.728;2023-12-28T12:34:42;11.20;99.90
70368;DHT22;57789;53.868;10.728;2023-12-28T12:37:10;11.20;99.90
70368;DHT22;57789;53.868;10.728;2023-12-28T12:39:40;11.20;99.90
70368;DHT22;57789;53.868;10.728;2023-12-28T12:42:27;11.30;99.90
70368;DHT22;57789;53.868;10.728;2023-12-28T12:50:02;11.40;99.90
70368;DHT22;57789;53.868;10.728;2023-12-28T12:52:31;11.40;99.90
70368;DHT22;57789;53.868;10.728;2023-12-28T12:54:58;11.40;99.90
70368;DHT22;57789;53.868;10.728;2023-12-28T12:57:25;11.30;99.90
70368;DHT22;57789;53.868;10.728;2023-12-28T12:59:53;11.30;99.90
70368;DHT22;57789;53.868;10.728;2023-12-28T13:02:23;11.30;99.90
70368;DHT22;57789;53.868;10.728;2023-12-28T13:04:54;11.30;99.90
70368;DHT22;57789;53.868;10.728;2023-12-28T13:07:23;11.30;99.90
70368;DHT22;57789;53.868;10.728;2023-12-28T13:09:49;11.30;99.90
70368;DHT22;57789;53.868;10.728;2023-12-28T13:12:16;11.30;99.90
70368;DHT22;57789;53.868;10.728;2023-12-28T13:14:45;11.30;99.90
70368;DHT22;57789;53.868;10.728;2023-12-28T13:17:12;11.40;99.90
70368;DHT22;57789;53.868;10.728;2023-12-28T13:19:39;11.30;99.90
70368;DHT22;57789;53.868;10.728;2023-12-28T13:22:05;11.30;99.90
70368;DHT22;57789;53.868;10.728;2023-12-28T13:24:31;11.30;99.90
70368;DHT22;57789;53.868;10.728;2023-12-28T13:26:57;11.30;99.90
70368;DHT22;57789;53.868;10.728;2023-12-28T13:29:23;11.20;99.90
70368;DHT22;57789;53.868;10.728;2023-12-28T13:31:49;11.20;99.90
70368;DHT22;57789;53.868;10.728;2023-12-28T13:34:16;11.20;99.90
70368;DHT22;57789;53.868;10.728;2023-12-28T13:36:44;11.20;99.90
70368;DHT22;57789;53.868;10.728;2023-12-28T13:39:11;11.20;99.90
70368;DHT22;57789;53.868;10.728;2023-12-28T13:41:42;11.20;99.90
70368;DHT22;57789;53.868;10.728;2023-12-28T13:44:08;11.30;99.90
70368;DHT22;57789;53.868;10.728;2023-12-28T13:46:38;11.30;99.90
70368;DHT22;57789;53.868;10.728;2023-12-28T13:49:04;11.20;99.90
70368;DHT22;57789;53.868;10.728;2023-12-28T13:51:32;11.30;99.90
70368;DHT22;57789;53.868;10.728;2023-12-28T13:53:58;11.30;99.90
70368;DHT22;57789;53.868;10.728;2023-12-28T13:56:23;11.30;99.90
70368;DHT22;57789;53.868;10.728;2023-12-28T13:58:50;11.30;99.90
70368;DHT22;57789;53.868;10.728;2023-12-28T14:01:19;11.30;99.90
70368;DHT22;57789;53.868;10.728;2023-12-28T14:03:47;11.30;99.90
70368;DHT22;57789;53.868;10.728;2023-12-28T14:06:20;11.30;99.90
70368;DHT22;57789;53.868;10.728;2023-12-28T14:08:52;11.30;99.90
70368;DHT22;57789;53.868;10.728;2023-12-28T14:11:20;11.20;99.90
70368;DHT22;57789;53.868;10.728;2023-12-28T14:13:46;11.20;99.90
70368;DHT22;57789;53.868;10.728;2023-12-28T14:16:12;11.20;99.90
70368;DHT22;57789;53.868;10.728;2023-12-28T14:18:38;11.20;99.90
70368;DHT22;57789;53.868;10.728;2023-12-28T14:21:08;11.20;99.90
70368;DHT22;57789;53.868;10.728;2023-12-28T14:23:35;11.20;99.90
70368;DHT22;57789;53.868;10.728;2023-12-28T14:26:14;11.10;99.90
70368;DHT22;57789;53.868;10.728;2023-12-28T14:28:44;11.20;99.90
70368;DHT22;57789;53.868;10.728;2023-12-28T14:31:10;11.10;99.90
70368;DHT22;57789;53.868;10.728;2023-12-28T14:33:37;11.00;99.90
70368;DHT22;57789;53.868;10.728;2023-12-28T14:36:07;10.90;99.90
70368;DHT22;57789;53.868;10.728;2023-12-28T14:38:37;11.00;99.90
70368;DHT22;57789;53.868;10.728;2023-12-28T14:41:02;11.00;99.90
70368;DHT22;57789;53.868;10.728;2023-12-28T14:43:30;11.10;99.90
70368;DHT22;57789;53.868;10.728;2023-12-28T14:45:58;11.10;99.90
70368;DHT22;57789;53.868;10.728;2023-12-28T14:48:29;11.10;99.90
70368;DHT22;57789;53.868;10.728;2023-12-28T14:51:02;11.10;99.90
70368;DHT22;57789;53.868;10.728;2023-12-28T14:53:33;11.10;99.90
70368;DHT22;57789;53.868;10.728;2023-12-28T14:56:01;11.10;99.90
70368;DHT22;57789;53.868;10.728;2023-12-28T14:58:32;11.00;99.90
70368;DHT22;57789;53.868;10.728;2023-12-28T15:01:02;11.00;99.90
70368;DHT22;57789;53.868;10.728;2023-12-28T15:03:32;10.90;99.90
70368;DHT22;57789;53.868;10.728;2023-12-28T15:05:59;10.80;99.90
70368;DHT22;57789;53.868;10.728;2023-12-28T15:08:26;10.60;99.90
70368;DHT22;57789;53.868;10.728;2023-12-28T15:10:53;10.60;99.90
70368;DHT22;57789;53.868;10.728;2023-12-28T15:13:23;10.50;99.90
70368;DHT22;57789;53.868;10.728;2023-12-28T15:15:52;10.40;99.90
70368;DHT22;57789;53.868;10.728;2023-12-28T15:18:24;10.40;99.90
70368;DHT22;57789;53.868;10.728;2023-12-28T15:20:54;10.40;99.90
70368;DHT22;57789;53.868;10.728;2023-12-28T15:23:31;10.30;99.90
70368;DHT22;57789;53.868;10.728;2023-12-28T15:26:03;10.30;99.90
70368;DHT22;57789;53.868;10.728;2023-12-28T15:28:39;10.30;99.90
70368;DHT22;57789;53.868;10.728;2023-12-28T15:31:06;10.40;99.90
70368;DHT22;57789;53.868;10.728;2023-12-28T15:33:33;10.30;99.90
70368;DHT22;57789;53.868;10.728;2023-12-28T15:36:03;10.30;99.90
70368;DHT22;57789;53.868;10.728;2023-12-28T15:38:30;10.30;99.90
70368;DHT22;57789;53.868;10.728;2023-12-28T15:40:57;10.30;99.90